sensor_id;sensor_type;location;lat;lon;timestamp;pressure;altitude;pressure_sealevel;temperature;humidity
60589;BME280;46421;48.610;9.334;2022-12-07T00:01:26;98062.88;;;3.30;100.00
60589;BME280;46421;48.610;9.334;2022-12-07T00:03:54;98063.94;;;3.27;100.00
60589;BME280;46421;48.610;9.334;2022-12-07T00:06:22;98059.22;;;3.21;100.00
60589;BME280;46421;48.610;9.334;2022-12-07T00:08:48;98062.81;;;3.20;100.00
60589;BME280;46421;48.610;9.334;2022-12-07T00:11:16;98065.25;;;3.12;100.00
60589;BME280;46421;48.610;9.334;2022-12-07T00:13:42;98050.06;;;3.15;100.00
60589;BME280;46421;48.610;9.334;2022-12-07T00:16:11;98051.94;;;3.35;100.00
60589;BME280;46421;48.610;9.334;2022-12-07T00:18:38;98057.81;;;3.17;100.00
60589;BME280;46421;48.610;9.334;2022-12-07T00:21:26;98056.19;;;3.26;100.00
60589;BME280;46421;48.610;9.334;2022-12-07T00:23:51;98054.00;;;3.31;100.00
60589;BME280;46421;48.610;9.334;2022-12-07T00:26:20;98051.13;;;3.34;100.00
60589;BME280;46421;48.610;9.334;2022-12-07T00:28:51;98058.44;;;3.30;100.00
60589;BME280;46421;48.610;9.334;2022-12-07T00:31:18;98063.50;;;3.22;100.00
60589;BME280;46421;48.610;9.334;2022-12-07T00:33:44;98051.03;;;3.14;100.00
60589;BME280;46421;48.610;9.334;2022-12-07T00:36:14;98053.66;;;3.14;100.00
60589;BME280;46421;48.610;9.334;2022-12-07T00:38:40;98057.81;;;3.17;100.00
60589;BME280;46421;48.610;9.334;2022-12-07T00:41:11;98053.75;;;3.34;100.00
60589;BME280;46421;48.610;9.334;2022-12-07T00:43:37;98056.06;;;3.27;100.00
60589;BME280;46421;48.610;9.334;2022-12-07T00:46:03;98047.38;;;3.27;100.00
60589;BME280;46421;48.610;9.334;2022-12-07T00:48:28;98056.16;;;3.16;100.00
60589;BME280;46421;48.610;9.334;2022-12-07T00:50:54;98054.25;;;3.18;100.00
60589;BME280;46421;48.610;9.334;2022-12-07T00:53:19;98053.91;;;3.11;100.00
60589;BME280;46421;48.610;9.334;2022-12-07T00:55:45;98050.47;;;3.11;100.00
60589;BME280;46421;48.610;9.334;2022-12-07T00:58:10;98044.59;;;3.28;100.00
60589;BME280;46421;48.610;9.334;2022-12-07T01:00:37;98042.06;;;3.17;100.00
60589;BME280;46421;48.610;9.334;2022-12-07T01:03:04;98048.53;;;3.13;100.00
60589;BME280;46421;48.610;9.334;2022-12-07T01:05:30;98048.91;;;3.08;100.00
60589;BME280;46421;48.610;9.334;2022-12-07T01:07:55;98050.06;;;3.15;100.00
60589;BME280;46421;48.610;9.334;2022-12-07T01:10:20;98044.34;;;3.31;100.00
60589;BME280;46421;48.610;9.334;2022-12-07T01:12:46;98046.84;;;3.33;100.00
60589;BME280;46421;48.610;9.334;2022-12-07T01:15:11;98049.16;;;3.26;100.00
60589;BME280;46421;48.610;9.334;2022-12-07T01:17:36;98051.53;;;3.29;100.00
60589;BME280;46421;48.610;9.334;2022-12-07T01:20:03;98045.44;;;3.29;100.00
60589;BME280;46421;48.610;9.334;2022-12-07T01:22:28;98047.63;;;3.24;100.00
60589;BME280;46421;48.610;9.334;2022-12-07T01:24:54;98056.19;;;3.26;100.00
60589;BME280;46421;48.610;9.334;2022-12-07T01:27:19;98050.06;;;3.15;100.00
60589;BME280;46421;48.610;9.334;2022-12-07T01:29:45;98055.38;;;3.25;100.00
60589;BME280;46421;48.610;9.334;2022-12-07T01:32:10;98052.75;;;3.25;100.00
60589;BME280;46421;48.610;9.334;2022-12-07T01:34:35;98056.72;;;3.20;100.00
60589;BME280;46421;48.610;9.334;2022-12-07T01:37:00;98065.31;;;3.22;100.00
60589;BME280;46421;48.610;9.334;2022-12-07T01:39:26;98066.72;;;3.26;100.00
60589;BME280;46421;48.610;9.334;2022-12-07T01:41:52;98076.41;;;3.25;100.00
60589;BME280;46421;48.610;9.334;2022-12-07T01:44:22;98065.69;;;3.38;100.00
60589;BME280;46421;48.610;9.334;2022-12-07T01:46:50;98065.38;;;3.31;100.00
60589;BME280;46421;48.610;9.334;2022-12-07T01:49:43;98062.34;;;3.36;100.00
60589;BME280;46421;48.610;9.334;2022-12-07T01:52:31;98059.34;;;3.41;100.00
60589;BME280;46421;48.610;9.334;2022-12-07T01:55:02;98060.72;;;3.45;100.00
60589;BME280;46421;48.610;9.334;2022-12-07T01:57:30;98062.66;;;3.43;100.00
60589;BME280;46421;48.610;9.334;2022-12-07T01:59:57;98065.22;;;3.33;100.00
60589;BME280;46421;48.610;9.334;2022-12-07T02:02:30;98065.94;;;3.35;100.00
60589;BME280;46421;48.610;9.334;2022-12-07T02:05:01;98061.50;;;3.36;100.00
60589;BME280;46421;48.610;9.334;2022-12-07T02:07:28;98072.41;;;3.31;100.00
60589;BME280;46421;48.610;9.334;2022-12-07T02:09:54;98077.41;;;3.34;100.00
60589;BME280;46421;48.610;9.334;2022-12-07T02:12:20;98058.97;;;3.24;100.00
60589;BME280;46421;48.610;9.334;2022-12-07T02:14:46;98068.97;;;3.30;100.00
60589;BME280;46421;48.610;9.334;2022-12-07T02:17:35;98073.06;;;3.44;100.00
60589;BME280;46421;48.610;9.334;2022-12-07T02:20:09;98071.63;;;3.40;100.00
60589;BME280;46421;48.610;9.334;2022-12-07T02:22:51;98073.16;;;3.43;100.00
60589;BME280;46421;48.610;9.334;2022-12-07T02:30:42;98064.63;;;3.51;100.00
60589;BME280;46421;48.610;9.334;2022-12-07T02:33:28;98065.75;;;3.48;100.00
60589;BME280;46421;48.610;9.334;2022-12-07T02:36:06;98064.31;;;3.44;100.00
60589;BME280;46421;48.610;9.334;2022-12-07T02:38:50;98057.47;;;3.53;100.00
60589;BME280;46421;48.610;9.334;2022-12-07T02:41:25;98053.03;;;3.53;100.00
60589;BME280;46421;48.610;9.334;2022-12-07T02:43:55;98060.00;;;3.43;100.00
60589;BME280;46421;48.610;9.334;2022-12-07T02:46:24;98059.84;;;3.35;100.00
60589;BME280;46421;48.610;9.334;2022-12-07T02:48:51;98068.03;;;3.41;100.00
60589;BME280;46421;48.610;9.334;2022-12-07T02:51:18;98054.75;;;3.43;100.00
60589;BME280;46421;48.610;9.334;2022-12-07T02:53:44;98056.00;;;3.39;100.00
60589;BME280;46421;48.610;9.334;2022-12-07T02:59:25;98060.63;;;3.25;100.00
60589;BME280;46421;48.610;9.334;2022-12-07T03:02:35;98057.06;;;3.26;100.00
60589;BME280;46421;48.610;9.334;2022-12-07T03:08:13;98050.56;;;3.30;100.00
60589;BME280;46421;48.610;9.334;2022-12-07T03:13:39;98051.22;;;3.02;100.00
60589;BME280;46421;48.610;9.334;2022-12-07T03:16:36;98043.16;;;2.93;100.00
60589;BME280;46421;48.610;9.334;2022-12-07T03:19:15;98040.25;;;2.96;100.00
60589;BME280;46421;48.610;9.334;2022-12-07T03:21:47;98036.47;;;2.89;100.00
60589;BME280;46421;48.610;9.334;2022-12-07T03:24:20;98037.53;;;2.98;100.00
60589;BME280;46421;48.610;9.334;2022-12-07T03:26:50;98040.59;;;3.03;100.00
60589;BME280;46421;48.610;9.334;2022-12-07T03:29:22;98042.59;;;3.11;100.00
60589;BME280;46421;48.610;9.334;2022-12-07T03:31:51;98050.19;;;3.14;100.00
60589;BME280;46421;48.610;9.334;2022-12-07T03:34:25;98036.69;;;2.97;100.00
60589;BME280;46421;48.610;9.334;2022-12-07T03:36:58;98041.16;;;2.85;100.00
60589;BME280;46421;48.610;9.334;2022-12-07T03:41:56;98039.41;;;2.75;100.00
60589;BME280;46421;48.610;9.334;2022-12-07T03:44:23;98027.63;;;2.69;100.00
60589;BME280;46421;48.610;9.334;2022-12-07T03:47:03;98028.47;;;2.69;100.00
60589;BME280;46421;48.610;9.334;2022-12-07T03:57:50;98038.63;;;2.63;100.00
60589;BME280;46421;48.610;9.334;2022-12-07T04:00:17;98038.63;;;2.63;100.00
60589;BME280;46421;48.610;9.334;2022-12-07T04:02:43;98043.00;;;2.74;100.00
60589;BME280;46421;48.610;9.334;2022-12-07T04:05:09;98035.13;;;2.74;100.00
60589;BME280;46421;48.610;9.334;2022-12-07T04:07:34;98037.06;;;2.72;100.00
60589;BME280;46421;48.610;9.334;2022-12-07T04:10:00;98039.59;;;2.62;100.00
60589;BME280;46421;48.610;9.334;2022-12-07T04:12:25;98035.19;;;2.62;100.00
60589;BME280;46421;48.610;9.334;2022-12-07T04:14:50;98033.38;;;2.63;100.00
60589;BME280;46421;48.610;9.334;2022-12-07T04:17:16;98030.47;;;2.56;100.00
60589;BME280;46421;48.610;9.334;2022-12-07T04:19:41;98023.91;;;2.50;100.00
60589;BME280;46421;48.610;9.334;2022-12-07T04:22:07;98019.97;;;2.56;100.00
60589;BME280;46421;48.610;9.334;2022-12-07T04:24:33;98022.06;;;2.62;100.00
60589;BME280;46421;48.610;9.334;2022-12-07T04:26:58;98021.34;;;2.60;100.00
60589;BME280;46421;48.610;9.334;2022-12-07T04:29:24;98013.53;;;2.49;100.00
60589;BME280;46421;48.610;9.334;2022-12-07T04:31:50;98018.53;;;2.52;100.00
60589;BME280;46421;48.610;9.334;2022-12-07T04:34:16;98021.16;;;2.52;100.00
60589;BME280;46421;48.610;9.334;2022-12-07T04:36:42;98023.53;;;2.55;100.00
60589;BME280;46421;48.610;9.334;2022-12-07T04:39:18;98024.16;;;2.47;100.00
60589;BME280;46421;48.610;9.334;2022-12-07T04:41:44;98020.22;;;2.42;100.00
60589;BME280;46421;48.610;9.334;2022-12-07T04:44:09;98017.03;;;2.38;100.00
60589;BME280;46421;48.610;9.334;2022-12-07T04:46:35;98016.41;;;2.46;100.00
60589;BME280;46421;48.610;9.334;2022-12-07T04:49:00;98011.03;;;2.47;100.00
60589;BME280;46421;48.610;9.334;2022-12-07T04:51:28;98015.56;;;2.45;100.00
60589;BME280;46421;48.610;9.334;2022-12-07T04:53:55;98006.16;;;2.43;100.00
60589;BME280;46421;48.610;9.334;2022-12-07T04:56:21;98014.47;;;2.15;100.00
60589;BME280;46421;48.610;9.334;2022-12-07T04:58:47;98022.50;;;2.02;100.00
60589;BME280;46421;48.610;9.334;2022-12-07T05:01:14;98011.63;;;2.07;100.00
60589;BME280;46421;48.610;9.334;2022-12-07T05:03:40;98017.88;;;2.06;100.00
60589;BME280;46421;48.610;9.334;2022-12-07T05:06:06;98013.47;;;1.95;100.00
60589;BME280;46421;48.610;9.334;2022-12-07T05:08:32;98004.69;;;1.73;100.00
60589;BME280;46421;48.610;9.334;2022-12-07T05:10:58;98006.44;;;1.84;100.00
60589;BME280;46421;48.610;9.334;2022-12-07T05:13:23;98007.97;;;2.10;100.00
60589;BME280;46421;48.610;9.334;2022-12-07T05:15:49;98007.16;;;1.86;100.00
60589;BME280;46421;48.610;9.334;2022-12-07T05:18:15;98012.69;;;1.72;100.00
60589;BME280;46421;48.610;9.334;2022-12-07T05:20:41;98011.38;;;1.66;100.00
60589;BME280;46421;48.610;9.334;2022-12-07T05:23:06;98007.69;;;1.46;100.00
60589;BME280;46421;48.610;9.334;2022-12-07T05:25:32;98009.00;;;1.40;100.00
60589;BME280;46421;48.610;9.334;2022-12-07T05:27:57;98001.50;;;1.36;100.00
60589;BME280;46421;48.610;9.334;2022-12-07T05:30:24;98004.34;;;1.44;100.00
60589;BME280;46421;48.610;9.334;2022-12-07T05:32:50;98004.94;;;1.36;100.00
60589;BME280;46421;48.610;9.334;2022-12-07T05:35:15;97995.53;;;1.00;100.00
60589;BME280;46421;48.610;9.334;2022-12-07T05:37:41;97998.69;;;0.81;100.00
60589;BME280;46421;48.610;9.334;2022-12-07T05:40:07;98001.31;;;0.81;100.00
60589;BME280;46421;48.610;9.334;2022-12-07T05:42:32;98001.91;;;0.84;100.00
60589;BME280;46421;48.610;9.334;2022-12-07T05:44:57;98001.13;;;1.06;100.00
60589;BME280;46421;48.610;9.334;2022-12-07T05:47:23;97994.44;;;1.02;100.00
60589;BME280;46421;48.610;9.334;2022-12-07T05:49:48;98000.19;;;1.19;100.00
60589;BME280;46421;48.610;9.334;2022-12-07T05:52:14;97999.69;;;1.02;100.00
60589;BME280;46421;48.610;9.334;2022-12-07T05:54:39;97991.22;;;0.87;100.00
60589;BME280;46421;48.610;9.334;2022-12-07T05:57:04;97984.81;;;1.03;100.00
60589;BME280;46421;48.610;9.334;2022-12-07T05:59:29;97986.84;;;1.22;100.00
60589;BME280;46421;48.610;9.334;2022-12-07T06:02:00;97991.47;;;1.07;100.00
60589;BME280;46421;48.610;9.334;2022-12-07T06:04:30;97987.22;;;1.17;100.00
60589;BME280;46421;48.610;9.334;2022-12-07T06:06:56;97985.22;;;1.32;100.00
60589;BME280;46421;48.610;9.334;2022-12-07T06:09:23;97991.72;;;1.38;100.00
60589;BME280;46421;48.610;9.334;2022-12-07T06:11:49;97993.53;;;1.37;100.00
60589;BME280;46421;48.610;9.334;2022-12-07T06:14:33;97993.41;;;1.50;100.00
60589;BME280;46421;48.610;9.334;2022-12-07T06:16:59;97996.59;;;1.65;100.00
60589;BME280;46421;48.610;9.334;2022-12-07T06:19:24;97995.50;;;1.68;100.00
60589;BME280;46421;48.610;9.334;2022-12-07T06:21:50;97999.94;;;1.45;100.00
60589;BME280;46421;48.610;9.334;2022-12-07T06:24:16;97997.69;;;1.40;100.00
60589;BME280;46421;48.610;9.334;2022-12-07T06:26:42;98006.00;;;1.22;100.00
60589;BME280;46421;48.610;9.334;2022-12-07T06:29:08;98013.88;;;1.11;100.00
60589;BME280;46421;48.610;9.334;2022-12-07T06:31:35;98019.34;;;1.19;100.00
60589;BME280;46421;48.610;9.334;2022-12-07T06:34:05;98019.94;;;1.34;100.00
60589;BME280;46421;48.610;9.334;2022-12-07T06:36:30;98021.41;;;1.38;100.00
60589;BME280;46421;48.610;9.334;2022-12-07T06:38:56;98026.28;;;1.43;100.00
60589;BME280;46421;48.610;9.334;2022-12-07T06:41:22;98031.28;;;1.57;100.00
60589;BME280;46421;48.610;9.334;2022-12-07T06:43:47;98030.41;;;1.80;100.00
60589;BME280;46421;48.610;9.334;2022-12-07T06:46:14;98039.00;;;1.70;100.00
60589;BME280;46421;48.610;9.334;2022-12-07T06:48:40;98035.19;;;1.74;100.00
60589;BME280;46421;48.610;9.334;2022-12-07T06:51:05;98028.28;;;1.62;100.00
60589;BME280;46421;48.610;9.334;2022-12-07T06:53:31;98025.44;;;1.54;100.00
60589;BME280;46421;48.610;9.334;2022-12-07T06:55:56;98037.34;;;1.47;100.00
60589;BME280;46421;48.610;9.334;2022-12-07T06:58:21;98039.22;;;1.56;100.00
60589;BME280;46421;48.610;9.334;2022-12-07T07:00:48;98048.06;;;1.66;100.00
60589;BME280;46421;48.610;9.334;2022-12-07T07:03:14;98036.13;;;1.73;100.00
60589;BME280;46421;48.610;9.334;2022-12-07T07:05:40;98044.09;;;1.83;100.00
60589;BME280;46421;48.610;9.334;2022-12-07T07:08:06;98037.81;;;1.74;100.00
60589;BME280;46421;48.610;9.334;2022-12-07T07:10:31;98048.28;;;1.74;100.00
60589;BME280;46421;48.610;9.334;2022-12-07T07:12:57;98051.41;;;1.68;100.00
60589;BME280;46421;48.610;9.334;2022-12-07T07:15:22;98048.78;;;1.68;100.00
60589;BME280;46421;48.610;9.334;2022-12-07T07:17:47;98045.53;;;1.76;100.00
60589;BME280;46421;48.610;9.334;2022-12-07T07:20:13;98041.59;;;1.82;100.00
60589;BME280;46421;48.610;9.334;2022-12-07T07:22:38;98044.13;;;1.61;100.00
60589;BME280;46421;48.610;9.334;2022-12-07T07:25:04;98041.13;;;1.65;100.00
60589;BME280;46421;48.610;9.334;2022-12-07T07:27:29;98041.75;;;1.80;100.00
60589;BME280;46421;48.610;9.334;2022-12-07T07:29:54;98045.44;;;1.78;100.00
60589;BME280;46421;48.610;9.334;2022-12-07T07:32:20;98055.28;;;2.08;100.00
60589;BME280;46421;48.610;9.334;2022-12-07T07:34:46;98058.47;;;2.23;100.00
60589;BME280;46421;48.610;9.334;2022-12-07T07:37:12;98057.59;;;1.79;100.00
60589;BME280;46421;48.610;9.334;2022-12-07T07:39:38;98053.06;;;1.58;100.00
60589;BME280;46421;48.610;9.334;2022-12-07T07:42:03;98056.28;;;1.62;100.00
60589;BME280;46421;48.610;9.334;2022-12-07T07:44:29;98061.72;;;1.93;100.00
60589;BME280;46421;48.610;9.334;2022-12-07T07:46:54;98061.69;;;2.27;100.00
60589;BME280;46421;48.610;9.334;2022-12-07T07:49:19;98061.69;;;2.15;100.00
60589;BME280;46421;48.610;9.334;2022-12-07T07:51:45;98063.25;;;2.07;100.00
60589;BME280;46421;48.610;9.334;2022-12-07T07:54:10;98073.03;;;2.04;100.00
60589;BME280;46421;48.610;9.334;2022-12-07T07:56:36;98073.53;;;1.98;100.00
60589;BME280;46421;48.610;9.334;2022-12-07T07:59:01;98080.09;;;2.04;100.00
60589;BME280;46421;48.610;9.334;2022-12-07T08:01:26;98085.91;;;2.08;100.00
60589;BME280;46421;48.610;9.334;2022-12-07T08:03:52;98081.94;;;2.36;100.00
60589;BME280;46421;48.610;9.334;2022-12-07T08:06:17;98079.81;;;2.18;100.00
60589;BME280;46421;48.610;9.334;2022-12-07T08:08:43;98090.63;;;2.36;99.20
60589;BME280;46421;48.610;9.334;2022-12-07T08:11:08;98083.47;;;2.39;100.00
60589;BME280;46421;48.610;9.334;2022-12-07T08:13:34;98079.38;;;2.46;100.00
60589;BME280;46421;48.610;9.334;2022-12-07T08:16:05;98083.56;;;2.48;100.00
60589;BME280;46421;48.610;9.334;2022-12-07T08:18:30;98080.25;;;2.35;100.00
60589;BME280;46421;48.610;9.334;2022-12-07T08:21:00;98081.81;;;2.26;100.00
60589;BME280;46421;48.610;9.334;2022-12-07T08:23:28;98085.22;;;2.49;100.00
60589;BME280;46421;48.610;9.334;2022-12-07T08:25:53;98091.56;;;2.47;100.00
60589;BME280;46421;48.610;9.334;2022-12-07T08:28:19;98086.84;;;2.62;100.00
60589;BME280;46421;48.610;9.334;2022-12-07T08:30:44;98081.81;;;2.70;99.64
60589;BME280;46421;48.610;9.334;2022-12-07T08:33:10;98088.41;;;2.85;99.38
60589;BME280;46421;48.610;9.334;2022-12-07T08:35:35;98097.75;;;3.11;97.59
60589;BME280;46421;48.610;9.334;2022-12-07T08:38:01;98090.63;;;3.02;98.62
60589;BME280;46421;48.610;9.334;2022-12-07T08:40:27;98088.31;;;3.08;98.75
60589;BME280;46421;48.610;9.334;2022-12-07T08:42:53;98097.66;;;3.22;97.38
60589;BME280;46421;48.610;9.334;2022-12-07T08:45:20;98091.50;;;3.33;96.13
60589;BME280;46421;48.610;9.334;2022-12-07T08:47:58;98097.22;;;3.38;95.78
60589;BME280;46421;48.610;9.334;2022-12-07T08:50:27;98089.16;;;3.30;94.74
60589;BME280;46421;48.610;9.334;2022-12-07T08:52:55;98093.56;;;3.29;95.92
60589;BME280;46421;48.610;9.334;2022-12-07T08:55:22;98086.75;;;3.48;95.50
60589;BME280;46421;48.610;9.334;2022-12-07T08:57:48;98091.88;;;3.28;94.86
60589;BME280;46421;48.610;9.334;2022-12-07T09:00:14;98085.44;;;3.32;94.64
60589;BME280;46421;48.610;9.334;2022-12-07T09:02:43;98083.19;;;3.49;94.40
60589;BME280;46421;48.610;9.334;2022-12-07T09:05:08;98084.13;;;3.48;93.31
60589;BME280;46421;48.610;9.334;2022-12-07T09:07:34;98083.94;;;3.61;92.90
60589;BME280;46421;48.610;9.334;2022-12-07T09:10:00;98085.97;;;3.88;91.37
60589;BME280;46421;48.610;9.334;2022-12-07T09:12:25;98084.56;;;3.84;90.80
60589;BME280;46421;48.610;9.334;2022-12-07T09:14:51;98085.88;;;3.69;92.14
60589;BME280;46421;48.610;9.334;2022-12-07T09:17:16;98092.66;;;3.71;93.52
60589;BME280;46421;48.610;9.334;2022-12-07T09:19:42;98083.22;;;3.59;93.88
60589;BME280;46421;48.610;9.334;2022-12-07T09:22:07;98080.81;;;3.77;93.69
60589;BME280;46421;48.610;9.334;2022-12-07T09:24:33;98079.44;;;3.83;91.89
60589;BME280;46421;48.610;9.334;2022-12-07T09:26:58;98085.56;;;3.93;91.57
60589;BME280;46421;48.610;9.334;2022-12-07T09:29:24;98084.50;;;4.05;89.21
60589;BME280;46421;48.610;9.334;2022-12-07T09:31:50;98085.00;;;3.58;90.58
60589;BME280;46421;48.610;9.334;2022-12-07T09:34:16;98078.25;;;3.66;92.24
60589;BME280;46421;48.610;9.334;2022-12-07T09:36:41;98082.19;;;3.81;91.71
60589;BME280;46421;48.610;9.334;2022-12-07T09:39:08;98081.56;;;3.99;90.91
60589;BME280;46421;48.610;9.334;2022-12-07T09:41:37;98079.03;;;4.38;89.57
60589;BME280;46421;48.610;9.334;2022-12-07T09:44:12;98075.13;;;4.32;88.70
60589;BME280;46421;48.610;9.334;2022-12-07T09:46:40;98072.34;;;4.24;87.53
60589;BME280;46421;48.610;9.334;2022-12-07T09:49:12;98071.28;;;4.46;86.79
60589;BME280;46421;48.610;9.334;2022-12-07T09:51:39;98063.22;;;4.28;86.10
60589;BME280;46421;48.610;9.334;2022-12-07T09:54:05;98066.34;;;4.02;88.28
60589;BME280;46421;48.610;9.334;2022-12-07T09:56:31;98062.00;;;4.42;85.58
60589;BME280;46421;48.610;9.334;2022-12-07T09:59:01;98059.34;;;4.32;85.33
60589;BME280;46421;48.610;9.334;2022-12-07T10:01:32;98059.94;;;4.55;85.55
60589;BME280;46421;48.610;9.334;2022-12-07T10:04:16;98054.66;;;4.65;83.47
60589;BME280;46421;48.610;9.334;2022-12-07T10:06:44;98051.59;;;4.40;84.99
60589;BME280;46421;48.610;9.334;2022-12-07T10:09:12;98058.25;;;4.35;83.50
60589;BME280;46421;48.610;9.334;2022-12-07T10:14:30;98049.81;;;4.41;81.56
60589;BME280;46421;48.610;9.334;2022-12-07T10:16:56;98045.78;;;4.37;81.69
60589;BME280;46421;48.610;9.334;2022-12-07T10:19:29;98049.09;;;4.29;82.18
60589;BME280;46421;48.610;9.334;2022-12-07T10:22:04;98044.25;;;4.44;82.19
60589;BME280;46421;48.610;9.334;2022-12-07T10:24:30;98038.84;;;4.26;81.58
60589;BME280;46421;48.610;9.334;2022-12-07T10:26:56;98037.00;;;4.17;83.20
60589;BME280;46421;48.610;9.334;2022-12-07T10:31:56;98040.91;;;4.22;81.99
60589;BME280;46421;48.610;9.334;2022-12-07T10:34:34;98030.25;;;4.24;78.21
60589;BME280;46421;48.610;9.334;2022-12-07T10:39:41;98031.66;;;4.48;79.92
60589;BME280;46421;48.610;9.334;2022-12-07T10:42:16;98026.38;;;4.28;79.29
60589;BME280;46421;48.610;9.334;2022-12-07T10:44:42;98030.53;;;4.40;79.24
60589;BME280;46421;48.610;9.334;2022-12-07T10:50:29;98022.38;;;4.34;79.60
60589;BME280;46421;48.610;9.334;2022-12-07T10:53:05;98021.13;;;4.38;76.44
60589;BME280;46421;48.610;9.334;2022-12-07T10:55:56;98011.69;;;4.16;78.57
60589;BME280;46421;48.610;9.334;2022-12-07T10:58:43;98008.09;;;4.26;78.19
60589;BME280;46421;48.610;9.334;2022-12-07T11:07:16;97993.25;;;4.55;79.63
60589;BME280;46421;48.610;9.334;2022-12-07T11:10:21;97990.38;;;4.48;75.27
60589;BME280;46421;48.610;9.334;2022-12-07T11:13:22;97984.28;;;4.57;77.16
60589;BME280;46421;48.610;9.334;2022-12-07T11:21:45;97985.06;;;4.87;77.26
60589;BME280;46421;48.610;9.334;2022-12-07T11:24:18;97988.13;;;4.63;76.49
60589;BME280;46421;48.610;9.334;2022-12-07T11:29:47;97975.91;;;4.91;77.66
60589;BME280;46421;48.610;9.334;2022-12-07T11:32:23;97975.31;;;4.98;77.47
60589;BME280;46421;48.610;9.334;2022-12-07T11:38:09;97963.31;;;4.75;74.77
60589;BME280;46421;48.610;9.334;2022-12-07T11:40:38;97971.25;;;4.46;75.32
60589;BME280;46421;48.610;9.334;2022-12-07T11:45:47;97960.84;;;4.54;74.45
60589;BME280;46421;48.610;9.334;2022-12-07T11:49:13;97958.47;;;4.71;75.79
60589;BME280;46421;48.610;9.334;2022-12-07T11:51:15;97960.53;;;4.77;75.37
60589;BME280;46421;48.610;9.334;2022-12-07T11:53:53;97948.22;;;4.68;74.17
60589;BME280;46421;48.610;9.334;2022-12-07T11:56:25;97951.28;;;4.73;74.07
60589;BME280;46421;48.610;9.334;2022-12-07T11:58:59;97944.63;;;4.69;74.67
60589;BME280;46421;48.610;9.334;2022-12-07T12:06:41;97939.31;;;4.79;74.64
60589;BME280;46421;48.610;9.334;2022-12-07T12:09:33;97940.53;;;4.94;74.34
60589;BME280;46421;48.610;9.334;2022-12-07T12:12:23;97938.75;;;4.95;72.43
60589;BME280;46421;48.610;9.334;2022-12-07T12:15:03;97934.47;;;5.21;73.51
60589;BME280;46421;48.610;9.334;2022-12-07T12:20:43;97930.53;;;5.35;73.40
60589;BME280;46421;48.610;9.334;2022-12-07T12:23:33;97928.00;;;5.44;73.41
60589;BME280;46421;48.610;9.334;2022-12-07T12:26:03;97920.25;;;5.42;72.00
60589;BME280;46421;48.610;9.334;2022-12-07T12:28:35;97924.78;;;5.22;72.87
60589;BME280;46421;48.610;9.334;2022-12-07T12:31:13;97919.94;;;5.17;73.17
60589;BME280;46421;48.610;9.334;2022-12-07T12:34:00;97917.09;;;5.01;73.79
60589;BME280;46421;48.610;9.334;2022-12-07T12:39:18;97919.34;;;4.96;77.39
60589;BME280;46421;48.610;9.334;2022-12-07T12:51:45;97911.09;;;4.51;76.34
60589;BME280;46421;48.610;9.334;2022-12-07T12:59:38;97914.44;;;4.53;77.84
60589;BME280;46421;48.610;9.334;2022-12-07T13:02:20;97914.84;;;4.49;78.46
60589;BME280;46421;48.610;9.334;2022-12-07T13:04:57;97909.00;;;4.55;77.99
60589;BME280;46421;48.610;9.334;2022-12-07T13:21:01;97885.78;;;4.50;78.90
60589;BME280;46421;48.610;9.334;2022-12-07T13:28:51;97876.59;;;4.54;78.96
60589;BME280;46421;48.610;9.334;2022-12-07T13:33:48;97876.56;;;4.64;80.35
60589;BME280;46421;48.610;9.334;2022-12-07T13:36:22;97872.78;;;4.86;77.40
60589;BME280;46421;48.610;9.334;2022-12-07T13:38:59;97871.75;;;4.50;78.83
60589;BME280;46421;48.610;9.334;2022-12-07T13:41:34;97873.13;;;4.64;79.63
60589;BME280;46421;48.610;9.334;2022-12-07T13:44:08;97867.28;;;4.70;80.50
60589;BME280;46421;48.610;9.334;2022-12-07T13:49:20;97866.25;;;4.43;79.75
60589;BME280;46421;48.610;9.334;2022-12-07T13:51:47;97865.97;;;4.46;79.92
60589;BME280;46421;48.610;9.334;2022-12-07T13:54:13;97868.59;;;4.46;79.28
60589;BME280;46421;48.610;9.334;2022-12-07T13:56:39;97865.97;;;4.46;80.17
60589;BME280;46421;48.610;9.334;2022-12-07T13:59:10;97866.81;;;4.47;81.10
60589;BME280;46421;48.610;9.334;2022-12-07T14:01:38;97872.06;;;4.37;79.71
60589;BME280;46421;48.610;9.334;2022-12-07T14:06:54;97865.59;;;4.31;81.74
60589;BME280;46421;48.610;9.334;2022-12-07T14:09:25;97863.38;;;4.26;82.19
60589;BME280;46421;48.610;9.334;2022-12-07T14:11:52;97862.28;;;4.19;80.79
60589;BME280;46421;48.610;9.334;2022-12-07T14:14:25;97857.69;;;4.21;80.94
60589;BME280;46421;48.610;9.334;2022-12-07T14:17:49;97865.31;;;4.24;82.71
60589;BME280;46421;48.610;9.334;2022-12-07T14:19:53;97856.00;;;4.20;82.46
60589;BME280;46421;48.610;9.334;2022-12-07T14:22:26;97864.75;;;4.21;84.24
60589;BME280;46421;48.610;9.334;2022-12-07T14:25:19;97864.47;;;4.24;83.77
60589;BME280;46421;48.610;9.334;2022-12-07T14:30:16;97849.41;;;4.06;83.96
60589;BME280;46421;48.610;9.334;2022-12-07T14:32:42;97854.91;;;4.13;83.93
60589;BME280;46421;48.610;9.334;2022-12-07T14:35:15;97852.84;;;4.07;84.81
60589;BME280;46421;48.610;9.334;2022-12-07T14:37:42;97861.88;;;3.94;84.39
60589;BME280;46421;48.610;9.334;2022-12-07T14:40:13;97851.91;;;3.88;86.44
60589;BME280;46421;48.610;9.334;2022-12-07T14:42:39;97860.06;;;3.85;86.43
60589;BME280;46421;48.610;9.334;2022-12-07T14:45:05;97862.41;;;3.78;86.82
60589;BME280;46421;48.610;9.334;2022-12-07T14:47:31;97863.66;;;3.84;87.24
60589;BME280;46421;48.610;9.334;2022-12-07T14:49:57;97869.47;;;3.88;87.81
60589;BME280;46421;48.610;9.334;2022-12-07T14:52:28;97870.19;;;3.90;88.80
60589;BME280;46421;48.610;9.334;2022-12-07T14:54:55;97863.25;;;3.99;88.21
60589;BME280;46421;48.610;9.334;2022-12-07T14:57:20;97859.09;;;3.96;89.00
60589;BME280;46421;48.610;9.334;2022-12-07T14:59:46;97859.78;;;3.98;89.52
60589;BME280;46421;48.610;9.334;2022-12-07T15:02:13;97859.09;;;3.96;89.71
60589;BME280;46421;48.610;9.334;2022-12-07T15:04:40;97859.66;;;4.00;89.50
60589;BME280;46421;48.610;9.334;2022-12-07T15:07:10;97867.41;;;4.11;90.80
60589;BME280;46421;48.610;9.334;2022-12-07T15:09:38;97865.31;;;4.05;90.91